sensor_id;sensor_type;location;lat;lon;timestamp;temperature;humidity
67641;SHT31;54434;50.096;20.082;2023-04-09T00:02:17;3.21;84.45
67641;SHT31;54434;50.096;20.082;2023-04-09T00:04:53;3.18;84.49
67641;SHT31;54434;50.096;20.082;2023-04-09T00:07:29;3.18;84.60
67641;SHT31;54434;50.096;20.082;2023-04-09T00:10:07;3.14;84.59
67641;SHT31;54434;50.096;20.082;2023-04-09T00:12:44;3.13;84.65
67641;SHT31;54434;50.096;20.082;2023-04-09T00:15:20;3.10;84.62
67641;SHT31;54434;50.096;20.082;2023-04-09T00:18:02;3.11;84.76
67641;SHT31;54434;50.096;20.082;2023-04-09T00:20:38;3.10;84.71
67641;SHT31;54434;50.096;20.082;2023-04-09T00:23:15;3.11;84.79
67641;SHT31;54434;50.096;20.082;2023-04-09T00:25:51;3.14;84.80
67641;SHT31;54434;50.096;20.082;2023-04-09T00:28:28;3.15;84.78
67641;SHT31;54434;50.096;20.082;2023-04-09T00:31:04;3.18;84.84
67641;SHT31;54434;50.096;20.082;2023-04-09T00:33:41;3.20;85.01
67641;SHT31;54434;50.096;20.082;2023-04-09T00:36:18;3.22;85.18
67641;SHT31;54434;50.096;20.082;2023-04-09T00:38:57;3.25;85.21
67641;SHT31;54434;50.096;20.082;2023-04-09T00:41:33;3.25;85.20
67641;SHT31;54434;50.096;20.082;2023-04-09T00:44:10;3.28;85.22
67641;SHT31;54434;50.096;20.082;2023-04-09T00:46:46;3.31;85.26
67641;SHT31;54434;50.096;20.082;2023-04-09T00:49:23;3.33;85.24
67641;SHT31;54434;50.096;20.082;2023-04-09T00:51:59;3.35;85.20
67641;SHT31;54434;50.096;20.082;2023-04-09T00:54:36;3.35;85.19
67641;SHT31;54434;50.096;20.082;2023-04-09T00:57:12;3.37;85.20
67641;SHT31;54434;50.096;20.082;2023-04-09T00:59:50;3.39;85.20
67641;SHT31;54434;50.096;20.082;2023-04-09T01:02:26;3.40;85.13
67641;SHT31;54434;50.096;20.082;2023-04-09T01:05:04;3.41;85.12
67641;SHT31;54434;50.096;20.082;2023-04-09T01:07:49;3.43;85.11
67641;SHT31;54434;50.096;20.082;2023-04-09T01:10:41;3.45;85.10
67641;SHT31;54434;50.096;20.082;2023-04-09T01:13:27;3.45;85.00
67641;SHT31;54434;50.096;20.082;2023-04-09T01:16:11;3.45;85.02
67641;SHT31;54434;50.096;20.082;2023-04-09T01:18:57;3.46;84.99
67641;SHT31;54434;50.096;20.082;2023-04-09T01:21:41;3.48;85.00
67641;SHT31;54434;50.096;20.082;2023-04-09T01:24:25;3.48;85.00
67641;SHT31;54434;50.096;20.082;2023-04-09T01:27:20;3.49;85.04
67641;SHT31;54434;50.096;20.082;2023-04-09T01:30:04;3.51;85.16
67641;SHT31;54434;50.096;20.082;2023-04-09T01:32:43;3.55;85.20
67641;SHT31;54434;50.096;20.082;2023-04-09T01:35:21;3.57;85.20
67641;SHT31;54434;50.096;20.082;2023-04-09T01:38:00;3.59;85.17
67641;SHT31;54434;50.096;20.082;2023-04-09T01:40:38;3.60;85.13
67641;SHT31;54434;50.096;20.082;2023-04-09T01:43:18;3.62;85.28
67641;SHT31;54434;50.096;20.082;2023-04-09T01:45:57;3.66;85.44
67641;SHT31;54434;50.096;20.082;2023-04-09T01:48:35;3.69;85.51
67641;SHT31;54434;50.096;20.082;2023-04-09T01:51:13;3.72;85.59
67641;SHT31;54434;50.096;20.082;2023-04-09T01:53:50;3.74;85.59
67641;SHT31;54434;50.096;20.082;2023-04-09T01:56:26;3.75;85.60
67641;SHT31;54434;50.096;20.082;2023-04-09T01:59:13;3.78;85.58
67641;SHT31;54434;50.096;20.082;2023-04-09T02:01:53;3.79;85.60
67641;SHT31;54434;50.096;20.082;2023-04-09T02:04:37;3.81;85.60
67641;SHT31;54434;50.096;20.082;2023-04-09T02:07:24;3.84;85.60
67641;SHT31;54434;50.096;20.082;2023-04-09T02:10:10;3.87;85.58
67641;SHT31;54434;50.096;20.082;2023-04-09T02:12:50;3.84;85.56
67641;SHT31;54434;50.096;20.082;2023-04-09T02:15:29;3.87;85.60
67641;SHT31;54434;50.096;20.082;2023-04-09T02:18:25;3.90;85.60
67641;SHT31;54434;50.096;20.082;2023-04-09T02:21:04;3.92;85.60
67641;SHT31;54434;50.096;20.082;2023-04-09T02:23:41;3.96;85.60
67641;SHT31;54434;50.096;20.082;2023-04-09T02:26:18;4.00;85.62
67641;SHT31;54434;50.096;20.082;2023-04-09T02:28:55;4.02;85.54
67641;SHT31;54434;50.096;20.082;2023-04-09T02:31:31;4.04;85.59
67641;SHT31;54434;50.096;20.082;2023-04-09T02:34:07;4.07;85.55
67641;SHT31;54434;50.096;20.082;2023-04-09T02:36:44;4.07;85.54
67641;SHT31;54434;50.096;20.082;2023-04-09T02:39:20;4.10;85.54
67641;SHT31;54434;50.096;20.082;2023-04-09T02:41:57;4.14;85.59
67641;SHT31;54434;50.096;20.082;2023-04-09T02:44:34;4.17;85.59
67641;SHT31;54434;50.096;20.082;2023-04-09T02:47:10;4.21;85.65
67641;SHT31;54434;50.096;20.082;2023-04-09T02:49:46;4.26;85.70
67641;SHT31;54434;50.096;20.082;2023-04-09T02:52:23;4.30;85.71
67641;SHT31;54434;50.096;20.082;2023-04-09T02:54:59;4.30;85.70
67641;SHT31;54434;50.096;20.082;2023-04-09T02:57:37;4.31;85.74
67641;SHT31;54434;50.096;20.082;2023-04-09T03:00:14;4.33;85.73
67641;SHT31;54434;50.096;20.082;2023-04-09T03:02:50;4.34;85.77
67641;SHT31;54434;50.096;20.082;2023-04-09T03:05:28;4.35;85.80
67641;SHT31;54434;50.096;20.082;2023-04-09T03:08:05;4.36;85.80
67641;SHT31;54434;50.096;20.082;2023-04-09T03:10:41;4.40;85.80
67641;SHT31;54434;50.096;20.082;2023-04-09T03:13:18;4.42;85.73
67641;SHT31;54434;50.096;20.082;2023-04-09T03:15:56;4.43;85.70
67641;SHT31;54434;50.096;20.082;2023-04-09T03:18:33;4.45;85.70
67641;SHT31;54434;50.096;20.082;2023-04-09T03:21:09;4.45;85.64
67641;SHT31;54434;50.096;20.082;2023-04-09T03:23:50;4.44;85.60
67641;SHT31;54434;50.096;20.082;2023-04-09T03:26:27;4.43;85.55
67641;SHT31;54434;50.096;20.082;2023-04-09T03:29:08;4.43;85.49
67641;SHT31;54434;50.096;20.082;2023-04-09T03:31:44;4.40;85.45
67641;SHT31;54434;50.096;20.082;2023-04-09T03:34:20;4.40;85.40
67641;SHT31;54434;50.096;20.082;2023-04-09T03:36:58;4.37;85.37
67641;SHT31;54434;50.096;20.082;2023-04-09T03:39:35;4.35;85.31
67641;SHT31;54434;50.096;20.082;2023-04-09T03:42:12;4.34;85.23
67641;SHT31;54434;50.096;20.082;2023-04-09T03:44:50;4.32;85.20
67641;SHT31;54434;50.096;20.082;2023-04-09T03:47:35;4.29;85.19
67641;SHT31;54434;50.096;20.082;2023-04-09T03:50:12;4.28;85.15
67641;SHT31;54434;50.096;20.082;2023-04-09T03:52:54;4.28;85.15
67641;SHT31;54434;50.096;20.082;2023-04-09T03:55:31;4.29;85.09
67641;SHT31;54434;50.096;20.082;2023-04-09T03:58:11;4.29;85.10
67641;SHT31;54434;50.096;20.082;2023-04-09T04:00:48;4.30;85.10
67641;SHT31;54434;50.096;20.082;2023-04-09T04:03:37;4.28;85.05
67641;SHT31;54434;50.096;20.082;2023-04-09T04:06:22;4.26;84.97
67641;SHT31;54434;50.096;20.082;2023-04-09T04:09:39;4.24;85.02
67641;SHT31;54434;50.096;20.082;2023-04-09T04:12:19;4.24;85.02
67641;SHT31;54434;50.096;20.082;2023-04-09T04:15:18;4.23;85.00
67641;SHT31;54434;50.096;20.082;2023-04-09T04:17:58;4.22;84.99
67641;SHT31;54434;50.096;20.082;2023-04-09T04:20:43;4.21;84.89
67641;SHT31;54434;50.096;20.082;2023-04-09T04:23:20;4.18;84.80
67641;SHT31;54434;50.096;20.082;2023-04-09T04:26:03;4.16;84.83
67641;SHT31;54434;50.096;20.082;2023-04-09T04:28:42;4.16;84.91
67641;SHT31;54434;50.096;20.082;2023-04-09T04:31:28;4.19;84.96
67641;SHT31;54434;50.096;20.082;2023-04-09T04:34:05;4.19;84.95
67641;SHT31;54434;50.096;20.082;2023-04-09T04:36:42;4.19;84.90
67641;SHT31;54434;50.096;20.082;2023-04-09T04:39:18;4.20;84.97
67641;SHT31;54434;50.096;20.082;2023-04-09T04:42:18;4.20;84.91
67641;SHT31;54434;50.096;20.082;2023-04-09T04:44:55;4.22;84.94
67641;SHT31;54434;50.096;20.082;2023-04-09T04:47:44;4.25;85.01
67641;SHT31;54434;50.096;20.082;2023-04-09T04:50:20;4.27;85.00
67641;SHT31;54434;50.096;20.082;2023-04-09T04:53:06;4.28;84.98
67641;SHT31;54434;50.096;20.082;2023-04-09T04:55:48;4.31;85.07
67641;SHT31;54434;50.096;20.082;2023-04-09T04:58:28;4.32;85.09
67641;SHT31;54434;50.096;20.082;2023-04-09T05:01:04;4.36;85.10
67641;SHT31;54434;50.096;20.082;2023-04-09T05:03:41;4.41;85.15
67641;SHT31;54434;50.096;20.082;2023-04-09T05:06:36;4.48;85.13
67641;SHT31;54434;50.096;20.082;2023-04-09T05:09:15;4.53;85.18
67641;SHT31;54434;50.096;20.082;2023-04-09T05:12:09;4.59;85.22
67641;SHT31;54434;50.096;20.082;2023-04-09T05:14:45;4.66;85.27
67641;SHT31;54434;50.096;20.082;2023-04-09T05:17:22;4.74;85.32
67641;SHT31;54434;50.096;20.082;2023-04-09T05:19:59;4.84;85.41
67641;SHT31;54434;50.096;20.082;2023-04-09T05:22:42;4.94;85.41
67641;SHT31;54434;50.096;20.082;2023-04-09T05:25:19;5.08;85.40
67641;SHT31;54434;50.096;20.082;2023-04-09T05:27:56;5.23;85.32
67641;SHT31;54434;50.096;20.082;2023-04-09T05:30:33;5.36;85.19
67641;SHT31;54434;50.096;20.082;2023-04-09T05:33:10;5.49;85.11
67641;SHT31;54434;50.096;20.082;2023-04-09T05:35:46;5.61;84.99
67641;SHT31;54434;50.096;20.082;2023-04-09T05:38:23;5.73;84.75
67641;SHT31;54434;50.096;20.082;2023-04-09T05:41:01;5.85;84.63
67641;SHT31;54434;50.096;20.082;2023-04-09T05:43:41;5.95;84.50
67641;SHT31;54434;50.096;20.082;2023-04-09T05:46:18;6.07;84.41
67641;SHT31;54434;50.096;20.082;2023-04-09T05:48:54;6.20;84.22
67641;SHT31;54434;50.096;20.082;2023-04-09T05:51:31;6.32;84.12
67641;SHT31;54434;50.096;20.082;2023-04-09T05:54:08;6.42;83.98
67641;SHT31;54434;50.096;20.082;2023-04-09T05:56:45;6.53;83.74
67641;SHT31;54434;50.096;20.082;2023-04-09T05:59:23;6.66;83.57
67641;SHT31;54434;50.096;20.082;2023-04-09T06:01:59;6.77;83.20
67641;SHT31;54434;50.096;20.082;2023-04-09T06:04:37;6.86;82.79
67641;SHT31;54434;50.096;20.082;2023-04-09T06:07:13;6.91;82.50
67641;SHT31;54434;50.096;20.082;2023-04-09T06:09:50;6.97;82.27
67641;SHT31;54434;50.096;20.082;2023-04-09T06:12:26;7.03;81.93
67641;SHT31;54434;50.096;20.082;2023-04-09T06:15:04;7.09;81.71
67641;SHT31;54434;50.096;20.082;2023-04-09T06:17:41;7.19;81.61
67641;SHT31;54434;50.096;20.082;2023-04-09T06:20:19;7.28;81.54
67641;SHT31;54434;50.096;20.082;2023-04-09T06:22:55;7.31;81.35
67641;SHT31;54434;50.096;20.082;2023-04-09T06:25:32;7.35;81.22
67641;SHT31;54434;50.096;20.082;2023-04-09T06:28:08;7.38;81.01
67641;SHT31;54434;50.096;20.082;2023-04-09T06:30:45;7.37;80.75
67641;SHT31;54434;50.096;20.082;2023-04-09T06:33:21;7.38;80.75
67641;SHT31;54434;50.096;20.082;2023-04-09T06:35:58;7.42;80.52
67641;SHT31;54434;50.096;20.082;2023-04-09T06:38:34;7.41;80.32
67641;SHT31;54434;50.096;20.082;2023-04-09T06:41:11;7.43;80.30
67641;SHT31;54434;50.096;20.082;2023-04-09T06:43:47;7.46;80.14
67641;SHT31;54434;50.096;20.082;2023-04-09T06:46:24;7.49;80.17
67641;SHT31;54434;50.096;20.082;2023-04-09T06:49:00;7.52;79.98
67641;SHT31;54434;50.096;20.082;2023-04-09T06:51:37;7.59;80.08
67641;SHT31;54434;50.096;20.082;2023-04-09T06:54:14;7.68;79.82
67641;SHT31;54434;50.096;20.082;2023-04-09T06:56:50;7.74;79.52
67641;SHT31;54434;50.096;20.082;2023-04-09T06:59:26;7.84;79.34
67641;SHT31;54434;50.096;20.082;2023-04-09T07:02:04;8.01;79.23
67641;SHT31;54434;50.096;20.082;2023-04-09T07:04:41;8.19;78.90
67641;SHT31;54434;50.096;20.082;2023-04-09T07:07:18;8.43;78.61
67641;SHT31;54434;50.096;20.082;2023-04-09T07:09:56;8.80;78.23
67641;SHT31;54434;50.096;20.082;2023-04-09T07:12:33;9.21;77.27
67641;SHT31;54434;50.096;20.082;2023-04-09T07:15:10;9.62;76.33
67641;SHT31;54434;50.096;20.082;2023-04-09T07:17:46;10.04;75.20
67641;SHT31;54434;50.096;20.082;2023-04-09T07:20:23;10.54;74.16
67641;SHT31;54434;50.096;20.082;2023-04-09T07:22:59;11.11;73.14
67641;SHT31;54434;50.096;20.082;2023-04-09T07:25:36;11.78;71.94
67641;SHT31;54434;50.096;20.082;2023-04-09T07:28:13;12.50;69.97
67641;SHT31;54434;50.096;20.082;2023-04-09T07:30:49;13.23;68.82
67641;SHT31;54434;50.096;20.082;2023-04-09T07:33:26;13.90;66.91
67641;SHT31;54434;50.096;20.082;2023-04-09T07:36:03;14.45;65.61
67641;SHT31;54434;50.096;20.082;2023-04-09T07:38:39;15.09;63.82
67641;SHT31;54434;50.096;20.082;2023-04-09T07:41:16;15.58;62.24
67641;SHT31;54434;50.096;20.082;2023-04-09T07:43:53;16.04;60.94
67641;SHT31;54434;50.096;20.082;2023-04-09T07:46:30;16.46;59.08
67641;SHT31;54434;50.096;20.082;2023-04-09T07:49:06;16.84;58.26
67641;SHT31;54434;50.096;20.082;2023-04-09T07:51:42;17.19;56.75
67641;SHT31;54434;50.096;20.082;2023-04-09T07:54:19;17.43;55.95
67641;SHT31;54434;50.096;20.082;2023-04-09T07:56:56;17.68;55.12
67641;SHT31;54434;50.096;20.082;2023-04-09T07:59:33;17.73;54.12
67641;SHT31;54434;50.096;20.082;2023-04-09T08:02:10;17.82;54.22
67641;SHT31;54434;50.096;20.082;2023-04-09T08:04:47;17.97;53.70
67641;SHT31;54434;50.096;20.082;2023-04-09T08:07:24;18.01;52.97
67641;SHT31;54434;50.096;20.082;2023-04-09T08:10:00;18.11;52.77
67641;SHT31;54434;50.096;20.082;2023-04-09T08:12:38;18.14;52.41
67641;SHT31;54434;50.096;20.082;2023-04-09T08:15:15;18.19;52.36
67641;SHT31;54434;50.096;20.082;2023-04-09T08:17:53;18.06;51.62
67641;SHT31;54434;50.096;20.082;2023-04-09T08:20:29;17.80;51.95
67641;SHT31;54434;50.096;20.082;2023-04-09T08:23:06;17.70;52.16
67641;SHT31;54434;50.096;20.082;2023-04-09T08:25:43;17.54;52.41
67641;SHT31;54434;50.096;20.082;2023-04-09T08:28:20;17.50;52.65
67641;SHT31;54434;50.096;20.082;2023-04-09T08:30:57;17.54;52.47
67641;SHT31;54434;50.096;20.082;2023-04-09T08:33:33;17.46;51.62
67641;SHT31;54434;50.096;20.082;2023-04-09T08:36:10;17.21;51.63
67641;SHT31;54434;50.096;20.082;2023-04-09T08:38:46;17.05;52.70
67641;SHT31;54434;50.096;20.082;2023-04-09T08:41:24;16.79;52.47
67641;SHT31;54434;50.096;20.082;2023-04-09T08:44:01;16.45;52.71
67641;SHT31;54434;50.096;20.082;2023-04-09T08:46:38;16.10;53.47
67641;SHT31;54434;50.096;20.082;2023-04-09T08:49:15;15.78;54.31
67641;SHT31;54434;50.096;20.082;2023-04-09T08:51:51;15.52;54.43
67641;SHT31;54434;50.096;20.082;2023-04-09T08:54:28;15.22;54.99
67641;SHT31;54434;50.096;20.082;2023-04-09T08:57:06;15.16;55.71
67641;SHT31;54434;50.096;20.082;2023-04-09T08:59:43;15.20;56.17
67641;SHT31;54434;50.096;20.082;2023-04-09T09:02:19;15.25;56.36
67641;SHT31;54434;50.096;20.082;2023-04-09T09:04:56;15.07;55.59
67641;SHT31;54434;50.096;20.082;2023-04-09T09:07:33;14.88;56.10
67641;SHT31;54434;50.096;20.082;2023-04-09T09:10:26;14.59;56.03
67641;SHT31;54434;50.096;20.082;2023-04-09T09:13:22;14.52;57.14
67641;SHT31;54434;50.096;20.082;2023-04-09T09:16:13;14.48;57.28
67641;SHT31;54434;50.096;20.082;2023-04-09T09:18:52;14.50;58.16
67641;SHT31;54434;50.096;20.082;2023-04-09T09:21:29;14.48;56.89
67641;SHT31;54434;50.096;20.082;2023-04-09T09:24:17;14.30;57.07
67641;SHT31;54434;50.096;20.082;2023-04-09T09:26:53;14.34;57.23
67641;SHT31;54434;50.096;20.082;2023-04-09T09:29:30;14.55;57.89
67641;SHT31;54434;50.096;20.082;2023-04-09T09:32:14;14.93;57.17
67641;SHT31;54434;50.096;20.082;2023-04-09T09:35:00;15.08;55.82
67641;SHT31;54434;50.096;20.082;2023-04-09T09:37:39;15.16;55.98
67641;SHT31;54434;50.096;20.082;2023-04-09T09:40:26;15.23;55.31
67641;SHT31;54434;50.096;20.082;2023-04-09T09:43:03;15.18;54.84
67641;SHT31;54434;50.096;20.082;2023-04-09T09:45:40;15.15;55.74
67641;SHT31;54434;50.096;20.082;2023-04-09T09:48:18;15.03;55.13
67641;SHT31;54434;50.096;20.082;2023-04-09T09:50:59;15.03;55.85
67641;SHT31;54434;50.096;20.082;2023-04-09T09:53:42;15.10;55.86
67641;SHT31;54434;50.096;20.082;2023-04-09T09:56:22;15.12;56.45
67641;SHT31;54434;50.096;20.082;2023-04-09T09:59:12;14.97;55.39
67641;SHT31;54434;50.096;20.082;2023-04-09T10:01:57;14.71;55.94
67641;SHT31;54434;50.096;20.082;2023-04-09T10:04:40;14.56;56.12
67641;SHT31;54434;50.096;20.082;2023-04-09T10:07:21;14.49;55.95
67641;SHT31;54434;50.096;20.082;2023-04-09T10:09:58;14.38;56.11
67641;SHT31;54434;50.096;20.082;2023-04-09T10:12:37;14.22;56.29
67641;SHT31;54434;50.096;20.082;2023-04-09T10:15:18;14.09;57.29
67641;SHT31;54434;50.096;20.082;2023-04-09T10:17:56;13.95;57.30
67641;SHT31;54434;50.096;20.082;2023-04-09T10:20:35;13.83;58.09
67641;SHT31;54434;50.096;20.082;2023-04-09T10:23:30;13.83;58.36
67641;SHT31;54434;50.096;20.082;2023-04-09T10:26:12;13.78;58.37
67641;SHT31;54434;50.096;20.082;2023-04-09T10:29:03;13.77;58.92
67641;SHT31;54434;50.096;20.082;2023-04-09T10:31:49;13.78;59.12
67641;SHT31;54434;50.096;20.082;2023-04-09T10:34:37;13.78;58.42
67641;SHT31;54434;50.096;20.082;2023-04-09T10:37:19;13.68;57.99
67641;SHT31;54434;50.096;20.082;2023-04-09T10:40:02;13.71;58.23
67641;SHT31;54434;50.096;20.082;2023-04-09T10:42:50;13.70;58.65
67641;SHT31;54434;50.096;20.082;2023-04-09T10:45:37;13.76;58.14
67641;SHT31;54434;50.096;20.082;2023-04-09T10:48:14;13.86;57.69
67641;SHT31;54434;50.096;20.082;2023-04-09T10:50:56;13.98;57.38
67641;SHT31;54434;50.096;20.082;2023-04-09T10:53:37;14.01;54.98
67641;SHT31;54434;50.096;20.082;2023-04-09T10:56:16;13.97;55.65
67641;SHT31;54434;50.096;20.082;2023-04-09T10:58:53;13.96;55.73
67641;SHT31;54434;50.096;20.082;2023-04-09T11:01:30;13.99;56.04
67641;SHT31;54434;50.096;20.082;2023-04-09T11:04:13;14.02;55.69
67641;SHT31;54434;50.096;20.082;2023-04-09T11:06:54;14.02;56.36
67641;SHT31;54434;50.096;20.082;2023-04-09T11:09:34;14.03;56.30
67641;SHT31;54434;50.096;20.082;2023-04-09T11:12:14;13.94;56.31
67641;SHT31;54434;50.096;20.082;2023-04-09T11:14:51;13.92;56.24
67641;SHT31;54434;50.096;20.082;2023-04-09T11:17:30;14.03;56.62
67641;SHT31;54434;50.096;20.082;2023-04-09T11:20:11;14.06;55.39
67641;SHT31;54434;50.096;20.082;2023-04-09T11:22:53;14.02;55.41
67641;SHT31;54434;50.096;20.082;2023-04-09T11:25:32;14.03;55.64
67641;SHT31;54434;50.096;20.082;2023-04-09T11:28:09;13.95;54.95
67641;SHT31;54434;50.096;20.082;2023-04-09T11:30:48;13.93;56.00
67641;SHT31;54434;50.096;20.082;2023-04-09T11:33:31;13.95;55.47
67641;SHT31;54434;50.096;20.082;2023-04-09T11:36:08;13.95;55.57
67641;SHT31;54434;50.096;20.082;2023-04-09T11:38:46;13.99;56.02
67641;SHT31;54434;50.096;20.082;2023-04-09T11:41:34;13.98;55.76
67641;SHT31;54434;50.096;20.082;2023-04-09T11:44:11;14.02;56.16
67641;SHT31;54434;50.096;20.082;2023-04-09T11:46:48;14.08;56.80
67641;SHT31;54434;50.096;20.082;2023-04-09T11:49:26;14.14;56.11
67641;SHT31;54434;50.096;20.082;2023-04-09T11:52:03;14.10;54.73
67641;SHT31;54434;50.096;20.082;2023-04-09T11:54:39;14.10;54.70
67641;SHT31;54434;50.096;20.082;2023-04-09T11:57:20;14.11;54.79
67641;SHT31;54434;50.096;20.082;2023-04-09T11:59:57;14.04;55.09
67641;SHT31;54434;50.096;20.082;2023-04-09T12:02:45;14.06;54.87
67641;SHT31;54434;50.096;20.082;2023-04-09T12:05:31;14.10;55.69
67641;SHT31;54434;50.096;20.082;2023-04-09T12:08:12;14.14;55.58
67641;SHT31;54434;50.096;20.082;2023-04-09T12:10:49;14.23;55.70
67641;SHT31;54434;50.096;20.082;2023-04-09T12:13:32;14.32;55.27
67641;SHT31;54434;50.096;20.082;2023-04-09T12:16:14;14.36;53.62
67641;SHT31;54434;50.096;20.082;2023-04-09T12:18:54;14.40;53.53
67641;SHT31;54434;50.096;20.082;2023-04-09T12:21:47;14.38;53.92
67641;SHT31;54434;50.096;20.082;2023-04-09T12:24:27;14.44;54.04
67641;SHT31;54434;50.096;20.082;2023-04-09T12:27:03;14.46;54.18
67641;SHT31;54434;50.096;20.082;2023-04-09T12:29:41;14.38;53.69
67641;SHT31;54434;50.096;20.082;2023-04-09T12:32:18;14.40;54.40
67641;SHT31;54434;50.096;20.082;2023-04-09T12:34:54;14.35;55.05
67641;SHT31;54434;50.096;20.082;2023-04-09T12:37:31;14.35;55.16
67641;SHT31;54434;50.096;20.082;2023-04-09T12:40:09;14.36;55.20
67641;SHT31;54434;50.096;20.082;2023-04-09T12:42:46;14.36;55.30
67641;SHT31;54434;50.096;20.082;2023-04-09T12:45:23;14.34;54.74
67641;SHT31;54434;50.096;20.082;2023-04-09T12:48:01;14.25;54.59
67641;SHT31;54434;50.096;20.082;2023-04-09T12:50:38;14.15;55.26
67641;SHT31;54434;50.096;20.082;2023-04-09T12:53:14;14.09;54.47
67641;SHT31;54434;50.096;20.082;2023-04-09T12:55:51;13.98;53.31
67641;SHT31;54434;50.096;20.082;2023-04-09T12:58:27;13.89;54.20
67641;SHT31;54434;50.096;20.082;2023-04-09T13:01:05;13.84;54.55
67641;SHT31;54434;50.096;20.082;2023-04-09T13:03:42;13.82;54.18
67641;SHT31;54434;50.096;20.082;2023-04-09T13:06:19;13.74;54.00
67641;SHT31;54434;50.096;20.082;2023-04-09T13:08:55;13.67;54.21
67641;SHT31;54434;50.096;20.082;2023-04-09T13:11:32;13.59;54.65
67641;SHT31;54434;50.096;20.082;2023-04-09T13:14:09;13.57;55.20
67641;SHT31;54434;50.096;20.082;2023-04-09T13:16:45;13.60;55.43
67641;SHT31;54434;50.096;20.082;2023-04-09T13:19:23;13.57;55.15
67641;SHT31;54434;50.096;20.082;2023-04-09T13:22:02;13.59;55.04
67641;SHT31;54434;50.096;20.082;2023-04-09T13:24:39;13.64;54.72
67641;SHT31;54434;50.096;20.082;2023-04-09T13:27:16;13.69;54.73
67641;SHT31;54434;50.096;20.082;2023-04-09T13:29:52;13.66;54.48
67641;SHT31;54434;50.096;20.082;2023-04-09T13:32:29;13.60;54.74
67641;SHT31;54434;50.096;20.082;2023-04-09T13:35:07;13.54;54.72
67641;SHT31;54434;50.096;20.082;2023-04-09T13:37:44;13.50;55.06
67641;SHT31;54434;50.096;20.082;2023-04-09T13:40:20;13.47;55.00
67641;SHT31;54434;50.096;20.082;2023-04-09T13:42:57;13.45;55.29
67641;SHT31;54434;50.096;20.082;2023-04-09T13:45:35;13.42;56.28
67641;SHT31;54434;50.096;20.082;2023-04-09T13:48:11;13.44;56.14
67641;SHT31;54434;50.096;20.082;2023-04-09T13:50:48;13.41;55.34
67641;SHT31;54434;50.096;20.082;2023-04-09T13:53:24;13.39;55.43
67641;SHT31;54434;50.096;20.082;2023-04-09T13:56:01;13.34;55.77
67641;SHT31;54434;50.096;20.082;2023-04-09T13:58:38;13.34;55.85
67641;SHT31;54434;50.096;20.082;2023-04-09T14:01:15;13.34;55.26
67641;SHT31;54434;50.096;20.082;2023-04-09T14:03:51;13.33;55.74
67641;SHT31;54434;50.096;20.082;2023-04-09T14:06:29;13.30;55.79
67641;SHT31;54434;50.096;20.082;2023-04-09T14:09:05;13.29;55.32
67641;SHT31;54434;50.096;20.082;2023-04-09T14:11:42;13.32;54.85
67641;SHT31;54434;50.096;20.082;2023-04-09T14:14:18;13.38;54.96
67641;SHT31;54434;50.096;20.082;2023-04-09T14:16:55;13.39;55.34
67641;SHT31;54434;50.096;20.082;2023-04-09T14:19:31;13.41;55.24
67641;SHT31;54434;50.096;20.082;2023-04-09T14:22:08;13.42;54.72
67641;SHT31;54434;50.096;20.082;2023-04-09T14:24:44;13.42;54.96
67641;SHT31;54434;50.096;20.082;2023-04-09T14:27:22;13.49;54.70
67641;SHT31;54434;50.096;20.082;2023-04-09T14:29:59;13.48;54.36
67641;SHT31;54434;50.096;20.082;2023-04-09T14:32:35;13.45;54.79
67641;SHT31;54434;50.096;20.082;2023-04-09T14:35:14;13.46;55.20
67641;SHT31;54434;50.096;20.082;2023-04-09T14:37:50;13.45;55.37
67641;SHT31;54434;50.096;20.082;2023-04-09T14:40:27;13.39;54.94
67641;SHT31;54434;50.096;20.082;2023-04-09T14:43:03;13.40;55.88
67641;SHT31;54434;50.096;20.082;2023-04-09T14:45:40;13.40;55.84
67641;SHT31;54434;50.096;20.082;2023-04-09T14:48:17;13.38;55.32
67641;SHT31;54434;50.096;20.082;2023-04-09T14:50:53;13.37;55.17
67641;SHT31;54434;50.096;20.082;2023-04-09T14:53:29;13.38;54.94
67641;SHT31;54434;50.096;20.082;2023-04-09T14:56:07;13.36;55.15
67641;SHT31;54434;50.096;20.082;2023-04-09T14:58:44;13.29;55.29
67641;SHT31;54434;50.096;20.082;2023-04-09T15:01:20;13.25;54.71
67641;SHT31;54434;50.096;20.082;2023-04-09T15:03:57;13.25;55.31
67641;SHT31;54434;50.096;20.082;2023-04-09T15:06:34;13.24;55.22
67641;SHT31;54434;50.096;20.082;2023-04-09T15:09:10;13.23;56.18
67641;SHT31;54434;50.096;20.082;2023-04-09T15:11:46;13.19;57.99
67641;SHT31;54434;50.096;20.082;2023-04-09T15:14:25;13.05;59.21
67641;SHT31;54434;50.096;20.082;2023-04-09T15:17:04;12.94;59.48
67641;SHT31;54434;50.096;20.082;2023-04-09T15:19:40;12.87;60.13
67641;SHT31;54434;50.096;20.082;2023-04-09T15:22:16;12.81;60.29
67641;SHT31;54434;50.096;20.082;2023-04-09T15:24:53;12.74;60.49
67641;SHT31;54434;50.096;20.082;2023-04-09T15:27:29;12.68;61.01
67641;SHT31;54434;50.096;20.082;2023-04-09T15:30:08;12.62;60.89
67641;SHT31;54434;50.096;20.082;2023-04-09T15:32:44;12.56;61.00
67641;SHT31;54434;50.096;20.082;2023-04-09T15:35:21;12.53;61.24
67641;SHT31;54434;50.096;20.082;2023-04-09T15:38:00;12.50;60.84
67641;SHT31;54434;50.096;20.082;2023-04-09T15:40:36;12.46;60.60
67641;SHT31;54434;50.096;20.082;2023-04-09T15:43:14;12.41;60.39
67641;SHT31;54434;50.096;20.082;2023-04-09T15:45:51;12.39;60.74
67641;SHT31;54434;50.096;20.082;2023-04-09T15:48:28;12.35;60.60
67641;SHT31;54434;50.096;20.082;2023-04-09T15:51:05;12.34;60.73
67641;SHT31;54434;50.096;20.082;2023-04-09T15:53:42;12.30;61.01
67641;SHT31;54434;50.096;20.082;2023-04-09T15:56:18;12.26;61.39
67641;SHT31;54434;50.096;20.082;2023-04-09T15:58:54;12.25;62.14
67641;SHT31;54434;50.096;20.082;2023-04-09T16:01:33;12.22;61.74
67641;SHT31;54434;50.096;20.082;2023-04-09T16:04:09;12.18;60.91
67641;SHT31;54434;50.096;20.082;2023-04-09T16:06:46;12.16;60.91
67641;SHT31;54434;50.096;20.082;2023-04-09T16:09:22;12.15;60.94
67641;SHT31;54434;50.096;20.082;2023-04-09T16:11:59;12.11;61.34
67641;SHT31;54434;50.096;20.082;2023-04-09T16:14:35;12.07;61.73
67641;SHT31;54434;50.096;20.082;2023-04-09T16:17:12;12.02;62.01
67641;SHT31;54434;50.096;20.082;2023-04-09T16:19:49;11.98;62.07
67641;SHT31;54434;50.096;20.082;2023-04-09T16:22:28;11.96;62.26
67641;SHT31;54434;50.096;20.082;2023-04-09T16:25:06;11.94;62.51
67641;SHT31;54434;50.096;20.082;2023-04-09T16:27:43;11.90;63.27
67641;SHT31;54434;50.096;20.082;2023-04-09T16:30:20;11.85;63.54
67641;SHT31;54434;50.096;20.082;2023-04-09T16:32:56;11.79;64.17
67641;SHT31;54434;50.096;20.082;2023-04-09T16:35:33;11.76;64.39